sensor_id;sensor_type;location;lat;lon;timestamp;P1;durP1;ratioP1;P2;durP2;ratioP2
3004;SDS011;1512;51.486;6.610;2023-01-28T00:02:02;6.50;;;5.17;;
3004;SDS011;1512;51.486;6.610;2023-01-28T00:06:11;5.93;;;5.00;;
3004;SDS011;1512;51.486;6.610;2023-01-28T00:19:18;6.40;;;4.40;;
3004;SDS011;1512;51.486;6.610;2023-01-28T00:23:27;8.40;;;4.70;;
3004;SDS011;1512;51.486;6.610;2023-01-28T00:27:37;4.77;;;4.23;;
3004;SDS011;1512;51.486;6.610;2023-01-28T00:31:46;5.10;;;4.60;;
3004;SDS011;1512;51.486;6.610;2023-01-28T00:35:58;5.77;;;4.40;;
3004;SDS011;1512;51.486;6.610;2023-01-28T00:40:07;8.83;;;6.23;;
3004;SDS011;1512;51.486;6.610;2023-01-28T00:44:17;7.13;;;6.47;;
3004;SDS011;1512;51.486;6.610;2023-01-28T00:48:26;5.00;;;4.50;;
3004;SDS011;1512;51.486;6.610;2023-01-28T00:52:35;5.93;;;4.57;;
3004;SDS011;1512;51.486;6.610;2023-01-28T00:56:43;6.43;;;5.10;;
3004;SDS011;1512;51.486;6.610;2023-01-28T01:00:52;5.50;;;4.73;;
3004;SDS011;1512;51.486;6.610;2023-01-28T01:05:01;5.77;;;4.60;;
3004;SDS011;1512;51.486;6.610;2023-01-28T01:09:10;5.90;;;4.43;;
3004;SDS011;1512;51.486;6.610;2023-01-28T01:13:19;7.17;;;6.00;;
3004;SDS011;1512;51.486;6.610;2023-01-28T01:17:30;6.37;;;5.33;;
3004;SDS011;1512;51.486;6.610;2023-01-28T01:21:39;6.57;;;4.87;;
3004;SDS011;1512;51.486;6.610;2023-01-28T01:25:47;7.13;;;5.40;;
3004;SDS011;1512;51.486;6.610;2023-01-28T01:29:57;5.30;;;4.60;;
3004;SDS011;1512;51.486;6.610;2023-01-28T01:34:06;10.37;;;6.03;;
3004;SDS011;1512;51.486;6.610;2023-01-28T01:38:16;6.23;;;5.67;;
3004;SDS011;1512;51.486;6.610;2023-01-28T01:42:24;6.93;;;5.40;;
3004;SDS011;1512;51.486;6.610;2023-01-28T01:50:50;5.83;;;5.10;;
3004;SDS011;1512;51.486;6.610;2023-01-28T01:54:59;5.30;;;4.80;;
3004;SDS011;1512;51.486;6.610;2023-01-28T01:59:11;8.00;;;5.63;;
3004;SDS011;1512;51.486;6.610;2023-01-28T02:03:25;13.83;;;5.30;;
3004;SDS011;1512;51.486;6.610;2023-01-28T02:07:37;7.40;;;5.70;;
3004;SDS011;1512;51.486;6.610;2023-01-28T02:11:46;12.60;;;6.27;;
3004;SDS011;1512;51.486;6.610;2023-01-28T02:15:55;8.50;;;5.90;;
3004;SDS011;1512;51.486;6.610;2023-01-28T02:20:08;6.33;;;5.47;;
3004;SDS011;1512;51.486;6.610;2023-01-28T02:33:28;7.50;;;5.70;;
3004;SDS011;1512;51.486;6.610;2023-01-28T02:37:43;6.60;;;5.83;;
3004;SDS011;1512;51.486;6.610;2023-01-28T02:42:22;7.27;;;5.40;;
3004;SDS011;1512;51.486;6.610;2023-01-28T02:46:32;7.90;;;5.20;;
3004;SDS011;1512;51.486;6.610;2023-01-28T02:51:04;6.90;;;6.30;;
3004;SDS011;1512;51.486;6.610;2023-01-28T02:59:50;6.37;;;5.77;;
3004;SDS011;1512;51.486;6.610;2023-01-28T03:04:01;6.50;;;5.10;;
3004;SDS011;1512;51.486;6.610;2023-01-28T03:08:20;6.30;;;5.40;;
3004;SDS011;1512;51.486;6.610;2023-01-28T03:12:50;7.20;;;6.13;;
3004;SDS011;1512;51.486;6.610;2023-01-28T03:17:54;9.17;;;6.13;;
3004;SDS011;1512;51.486;6.610;2023-01-28T03:22:00;5.30;;;4.80;;
3004;SDS011;1512;51.486;6.610;2023-01-28T03:26:27;7.23;;;5.43;;
3004;SDS011;1512;51.486;6.610;2023-01-28T03:30:58;6.35;;;5.35;;
3004;SDS011;1512;51.486;6.610;2023-01-28T03:35:30;10.10;;;5.53;;
3004;SDS011;1512;51.486;6.610;2023-01-28T03:40:05;7.33;;;5.23;;
3004;SDS011;1512;51.486;6.610;2023-01-28T03:48:57;8.00;;;5.73;;
3004;SDS011;1512;51.486;6.610;2023-01-28T03:53:05;9.37;;;6.50;;
3004;SDS011;1512;51.486;6.610;2023-01-28T03:57:23;11.90;;;6.70;;
3004;SDS011;1512;51.486;6.610;2023-01-28T04:01:34;9.07;;;7.70;;
3004;SDS011;1512;51.486;6.610;2023-01-28T04:05:43;8.70;;;7.10;;
3004;SDS011;1512;51.486;6.610;2023-01-28T04:10:06;7.97;;;5.67;;
3004;SDS011;1512;51.486;6.610;2023-01-28T04:14:16;8.17;;;6.40;;
3004;SDS011;1512;51.486;6.610;2023-01-28T04:18:25;8.57;;;6.57;;
3004;SDS011;1512;51.486;6.610;2023-01-28T04:27:01;11.87;;;6.80;;
3004;SDS011;1512;51.486;6.610;2023-01-28T04:31:10;12.40;;;8.77;;
3004;SDS011;1512;51.486;6.610;2023-01-28T04:35:19;9.83;;;6.70;;
3004;SDS011;1512;51.486;6.610;2023-01-28T04:39:27;10.58;;;8.00;;
3004;SDS011;1512;51.486;6.610;2023-01-28T04:43:38;12.90;;;7.10;;
3004;SDS011;1512;51.486;6.610;2023-01-28T04:47:47;15.20;;;7.27;;
3004;SDS011;1512;51.486;6.610;2023-01-28T04:51:56;10.43;;;7.13;;
3004;SDS011;1512;51.486;6.610;2023-01-28T04:56:05;13.30;;;7.37;;
3004;SDS011;1512;51.486;6.610;2023-01-28T05:00:14;15.13;;;9.30;;
3004;SDS011;1512;51.486;6.610;2023-01-28T05:04:23;9.53;;;7.00;;
3004;SDS011;1512;51.486;6.610;2023-01-28T05:08:31;10.93;;;7.40;;
3004;SDS011;1512;51.486;6.610;2023-01-28T05:12:42;12.87;;;8.03;;
3004;SDS011;1512;51.486;6.610;2023-01-28T05:16:54;13.83;;;8.03;;
3004;SDS011;1512;51.486;6.610;2023-01-28T05:21:04;10.37;;;7.20;;
3004;SDS011;1512;51.486;6.610;2023-01-28T05:25:12;13.90;;;7.17;;
3004;SDS011;1512;51.486;6.610;2023-01-28T05:29:21;14.23;;;8.17;;
3004;SDS011;1512;51.486;6.610;2023-01-28T05:33:30;13.17;;;8.30;;
3004;SDS011;1512;51.486;6.610;2023-01-28T05:37:39;12.97;;;7.87;;
3004;SDS011;1512;51.486;6.610;2023-01-28T05:41:48;16.57;;;8.87;;
3004;SDS011;1512;51.486;6.610;2023-01-28T05:45:56;11.73;;;8.67;;
3004;SDS011;1512;51.486;6.610;2023-01-28T05:54:33;17.07;;;9.37;;
3004;SDS011;1512;51.486;6.610;2023-01-28T05:58:41;12.67;;;8.10;;
3004;SDS011;1512;51.486;6.610;2023-01-28T06:02:51;14.90;;;8.40;;
3004;SDS011;1512;51.486;6.610;2023-01-28T06:06:59;10.80;;;8.00;;
3004;SDS011;1512;51.486;6.610;2023-01-28T06:11:08;16.73;;;10.50;;
3004;SDS011;1512;51.486;6.610;2023-01-28T06:19:45;13.07;;;8.30;;
3004;SDS011;1512;51.486;6.610;2023-01-28T06:23:53;17.30;;;11.73;;
3004;SDS011;1512;51.486;6.610;2023-01-28T06:28:02;11.90;;;7.00;;
3004;SDS011;1512;51.486;6.610;2023-01-28T06:32:11;15.10;;;8.37;;
3004;SDS011;1512;51.486;6.610;2023-01-28T06:36:19;14.03;;;9.30;;
3004;SDS011;1512;51.486;6.610;2023-01-28T06:40:28;17.73;;;9.80;;
3004;SDS011;1512;51.486;6.610;2023-01-28T06:44:37;16.60;;;10.27;;
3004;SDS011;1512;51.486;6.610;2023-01-28T06:48:46;13.93;;;9.60;;
3004;SDS011;1512;51.486;6.610;2023-01-28T06:52:55;17.57;;;9.33;;
3004;SDS011;1512;51.486;6.610;2023-01-28T06:57:03;20.47;;;10.50;;
3004;SDS011;1512;51.486;6.610;2023-01-28T07:01:12;25.37;;;10.60;;
3004;SDS011;1512;51.486;6.610;2023-01-28T07:05:20;16.73;;;9.70;;
3004;SDS011;1512;51.486;6.610;2023-01-28T07:09:29;17.20;;;9.77;;
3004;SDS011;1512;51.486;6.610;2023-01-28T07:13:38;17.67;;;10.97;;
3004;SDS011;1512;51.486;6.610;2023-01-28T07:17:46;17.40;;;9.27;;
3004;SDS011;1512;51.486;6.610;2023-01-28T07:21:55;16.37;;;9.30;;
3004;SDS011;1512;51.486;6.610;2023-01-28T07:26:05;15.60;;;9.30;;
3004;SDS011;1512;51.486;6.610;2023-01-28T07:30:14;15.40;;;10.00;;
3004;SDS011;1512;51.486;6.610;2023-01-28T07:34:24;15.57;;;9.60;;
3004;SDS011;1512;51.486;6.610;2023-01-28T07:38:32;19.20;;;11.00;;
3004;SDS011;1512;51.486;6.610;2023-01-28T07:42:41;16.27;;;9.30;;
3004;SDS011;1512;51.486;6.610;2023-01-28T07:46:50;19.77;;;11.80;;
3004;SDS011;1512;51.486;6.610;2023-01-28T07:50:59;14.27;;;8.93;;
3004;SDS011;1512;51.486;6.610;2023-01-28T07:55:07;17.10;;;9.60;;
3004;SDS011;1512;51.486;6.610;2023-01-28T07:59:18;15.87;;;9.30;;
3004;SDS011;1512;51.486;6.610;2023-01-28T08:03:27;16.00;;;10.20;;
3004;SDS011;1512;51.486;6.610;2023-01-28T08:07:36;23.33;;;11.73;;
3004;SDS011;1512;51.486;6.610;2023-01-28T08:11:44;21.30;;;10.83;;
3004;SDS011;1512;51.486;6.610;2023-01-28T08:15:54;16.40;;;9.80;;
3004;SDS011;1512;51.486;6.610;2023-01-28T08:20:03;15.30;;;9.27;;
3004;SDS011;1512;51.486;6.610;2023-01-28T08:24:12;16.10;;;9.23;;
3004;SDS011;1512;51.486;6.610;2023-01-28T08:28:21;14.77;;;9.03;;
3004;SDS011;1512;51.486;6.610;2023-01-28T08:32:33;12.33;;;8.57;;
3004;SDS011;1512;51.486;6.610;2023-01-28T08:36:41;19.70;;;9.13;;
3004;SDS011;1512;51.486;6.610;2023-01-28T08:40:50;17.83;;;9.47;;
3004;SDS011;1512;51.486;6.610;2023-01-28T08:45:00;19.37;;;9.97;;
3004;SDS011;1512;51.486;6.610;2023-01-28T08:49:09;17.83;;;9.70;;
3004;SDS011;1512;51.486;6.610;2023-01-28T08:53:18;16.53;;;10.87;;
3004;SDS011;1512;51.486;6.610;2023-01-28T08:57:27;15.73;;;9.07;;
3004;SDS011;1512;51.486;6.610;2023-01-28T09:01:36;19.07;;;9.43;;
3004;SDS011;1512;51.486;6.610;2023-01-28T09:10:21;19.17;;;11.00;;
3004;SDS011;1512;51.486;6.610;2023-01-28T09:14:30;19.93;;;10.03;;
3004;SDS011;1512;51.486;6.610;2023-01-28T09:18:38;16.87;;;10.37;;
3004;SDS011;1512;51.486;6.610;2023-01-28T09:22:47;13.77;;;8.10;;
3004;SDS011;1512;51.486;6.610;2023-01-28T09:26:56;18.33;;;10.47;;
3004;SDS011;1512;51.486;6.610;2023-01-28T09:31:09;17.47;;;10.37;;
3004;SDS011;1512;51.486;6.610;2023-01-28T09:35:19;16.43;;;9.27;;
3004;SDS011;1512;51.486;6.610;2023-01-28T09:39:28;17.47;;;10.30;;
3004;SDS011;1512;51.486;6.610;2023-01-28T09:48:05;24.20;;;13.40;;
3004;SDS011;1512;51.486;6.610;2023-01-28T09:52:20;15.60;;;9.87;;
3004;SDS011;1512;51.486;6.610;2023-01-28T09:56:35;18.10;;;9.10;;
3004;SDS011;1512;51.486;6.610;2023-01-28T10:00:56;19.03;;;9.90;;
3004;SDS011;1512;51.486;6.610;2023-01-28T10:05:15;14.17;;;9.90;;
3004;SDS011;1512;51.486;6.610;2023-01-28T10:09:35;16.00;;;10.90;;
3004;SDS011;1512;51.486;6.610;2023-01-28T10:13:57;26.87;;;11.07;;
3004;SDS011;1512;51.486;6.610;2023-01-28T10:18:12;19.83;;;8.93;;
3004;SDS011;1512;51.486;6.610;2023-01-28T10:22:26;21.47;;;10.57;;
3004;SDS011;1512;51.486;6.610;2023-01-28T10:26:45;16.03;;;9.80;;
3004;SDS011;1512;51.486;6.610;2023-01-28T10:30:54;17.70;;;10.13;;
3004;SDS011;1512;51.486;6.610;2023-01-28T10:35:03;17.63;;;10.20;;
3004;SDS011;1512;51.486;6.610;2023-01-28T10:39:19;17.67;;;9.10;;
3004;SDS011;1512;51.486;6.610;2023-01-28T10:43:23;23.00;;;11.53;;
3004;SDS011;1512;51.486;6.610;2023-01-28T10:47:38;17.30;;;8.60;;
3004;SDS011;1512;51.486;6.610;2023-01-28T10:52:15;19.10;;;10.83;;
3004;SDS011;1512;51.486;6.610;2023-01-28T10:56:24;18.97;;;10.30;;
3004;SDS011;1512;51.486;6.610;2023-01-28T11:00:35;13.73;;;10.23;;
3004;SDS011;1512;51.486;6.610;2023-01-28T11:04:45;21.80;;;9.70;;
3004;SDS011;1512;51.486;6.610;2023-01-28T11:08:54;18.13;;;9.43;;
3004;SDS011;1512;51.486;6.610;2023-01-28T11:13:05;26.13;;;11.17;;
3004;SDS011;1512;51.486;6.610;2023-01-28T11:17:16;21.30;;;13.20;;
3004;SDS011;1512;51.486;6.610;2023-01-28T11:21:28;18.03;;;9.80;;
3004;SDS011;1512;51.486;6.610;2023-01-28T11:25:38;21.80;;;12.70;;
3004;SDS011;1512;51.486;6.610;2023-01-28T11:29:47;18.80;;;11.07;;
3004;SDS011;1512;51.486;6.610;2023-01-28T11:33:56;15.60;;;11.30;;
3004;SDS011;1512;51.486;6.610;2023-01-28T11:38:17;17.90;;;9.63;;
3004;SDS011;1512;51.486;6.610;2023-01-28T11:42:28;15.00;;;9.33;;
3004;SDS011;1512;51.486;6.610;2023-01-28T11:46:50;21.13;;;9.63;;
3004;SDS011;1512;51.486;6.610;2023-01-28T11:51:21;20.33;;;10.30;;
3004;SDS011;1512;51.486;6.610;2023-01-28T12:00:03;13.63;;;9.30;;
3004;SDS011;1512;51.486;6.610;2023-01-28T12:13:34;18.90;;;9.57;;
3004;SDS011;1512;51.486;6.610;2023-01-28T12:22:23;16.67;;;10.33;;
3004;SDS011;1512;51.486;6.610;2023-01-28T12:26:38;17.20;;;9.13;;
3004;SDS011;1512;51.486;6.610;2023-01-28T12:30:56;14.27;;;8.67;;
3004;SDS011;1512;51.486;6.610;2023-01-28T12:35:16;18.40;;;11.40;;
3004;SDS011;1512;51.486;6.610;2023-01-28T12:39:38;37.33;;;21.83;;
3004;SDS011;1512;51.486;6.610;2023-01-28T12:53:36;18.20;;;10.90;;
3004;SDS011;1512;51.486;6.610;2023-01-28T12:57:50;17.03;;;11.03;;
3004;SDS011;1512;51.486;6.610;2023-01-28T13:06:32;27.10;;;15.60;;
3004;SDS011;1512;51.486;6.610;2023-01-28T13:10:43;21.57;;;11.67;;
3004;SDS011;1512;51.486;6.610;2023-01-28T13:14:52;26.57;;;13.27;;
3004;SDS011;1512;51.486;6.610;2023-01-28T13:27:53;25.67;;;13.50;;
3004;SDS011;1512;51.486;6.610;2023-01-28T13:32:24;17.73;;;11.13;;
3004;SDS011;1512;51.486;6.610;2023-01-28T13:36:29;17.83;;;10.13;;
3004;SDS011;1512;51.486;6.610;2023-01-28T13:40:40;23.43;;;12.07;;
3004;SDS011;1512;51.486;6.610;2023-01-28T13:44:49;23.07;;;12.10;;
3004;SDS011;1512;51.486;6.610;2023-01-28T13:48:58;22.83;;;13.13;;
3004;SDS011;1512;51.486;6.610;2023-01-28T14:02:21;18.30;;;14.43;;
3004;SDS011;1512;51.486;6.610;2023-01-28T14:20:52;20.23;;;12.13;;
3004;SDS011;1512;51.486;6.610;2023-01-28T14:25:02;22.32;;;13.20;;
3004;SDS011;1512;51.486;6.610;2023-01-28T14:37:45;26.43;;;13.60;;
3004;SDS011;1512;51.486;6.610;2023-01-28T14:41:54;19.60;;;11.77;;
3004;SDS011;1512;51.486;6.610;2023-01-28T14:46:08;31.80;;;15.60;;
3004;SDS011;1512;51.486;6.610;2023-01-28T14:55:07;22.42;;;12.03;;
3004;SDS011;1512;51.486;6.610;2023-01-28T14:59:28;32.83;;;16.67;;
3004;SDS011;1512;51.486;6.610;2023-01-28T15:03:47;28.10;;;13.37;;
3004;SDS011;1512;51.486;6.610;2023-01-28T15:07:56;24.70;;;14.77;;
3004;SDS011;1512;51.486;6.610;2023-01-28T15:12:05;24.30;;;14.50;;
3004;SDS011;1512;51.486;6.610;2023-01-28T15:16:20;26.47;;;14.37;;
3004;SDS011;1512;51.486;6.610;2023-01-28T15:20:26;23.37;;;14.60;;
3004;SDS011;1512;51.486;6.610;2023-01-28T15:24:35;25.48;;;14.40;;
3004;SDS011;1512;51.486;6.610;2023-01-28T15:28:46;29.07;;;13.57;;
3004;SDS011;1512;51.486;6.610;2023-01-28T15:33:15;24.70;;;13.03;;
3004;SDS011;1512;51.486;6.610;2023-01-28T15:37:09;25.10;;;14.07;;
3004;SDS011;1512;51.486;6.610;2023-01-28T15:41:20;24.60;;;13.27;;
3004;SDS011;1512;51.486;6.610;2023-01-28T15:45:33;31.53;;;14.43;;
3004;SDS011;1512;51.486;6.610;2023-01-28T15:49:42;22.27;;;13.57;;
3004;SDS011;1512;51.486;6.610;2023-01-28T15:54:00;21.30;;;12.80;;
3004;SDS011;1512;51.486;6.610;2023-01-28T15:58:15;22.90;;;12.00;;
3004;SDS011;1512;51.486;6.610;2023-01-28T16:02:25;22.60;;;12.50;;
3004;SDS011;1512;51.486;6.610;2023-01-28T16:06:35;18.90;;;11.73;;
3004;SDS011;1512;51.486;6.610;2023-01-28T16:10:51;23.23;;;12.70;;
3004;SDS011;1512;51.486;6.610;2023-01-28T16:15:00;26.23;;;11.80;;
3004;SDS011;1512;51.486;6.610;2023-01-28T16:19:14;21.43;;;10.93;;
3004;SDS011;1512;51.486;6.610;2023-01-28T16:23:24;19.83;;;12.17;;
3004;SDS011;1512;51.486;6.610;2023-01-28T16:27:34;20.80;;;12.03;;
3004;SDS011;1512;51.486;6.610;2023-01-28T16:31:43;25.20;;;14.30;;
3004;SDS011;1512;51.486;6.610;2023-01-28T16:35:51;19.53;;;11.80;;
3004;SDS011;1512;51.486;6.610;2023-01-28T16:40:02;20.60;;;11.70;;
3004;SDS011;1512;51.486;6.610;2023-01-28T16:44:12;22.53;;;12.90;;
3004;SDS011;1512;51.486;6.610;2023-01-28T16:48:21;18.70;;;12.00;;
3004;SDS011;1512;51.486;6.610;2023-01-28T16:52:30;18.17;;;11.83;;
3004;SDS011;1512;51.486;6.610;2023-01-28T16:56:39;22.27;;;11.93;;
3004;SDS011;1512;51.486;6.610;2023-01-28T17:00:51;19.90;;;11.50;;
3004;SDS011;1512;51.486;6.610;2023-01-28T17:05:00;30.40;;;14.90;;
3004;SDS011;1512;51.486;6.610;2023-01-28T17:09:11;32.13;;;16.23;;
3004;SDS011;1512;51.486;6.610;2023-01-28T17:13:20;27.43;;;14.27;;
3004;SDS011;1512;51.486;6.610;2023-01-28T17:17:30;31.03;;;15.20;;
3004;SDS011;1512;51.486;6.610;2023-01-28T17:21:38;23.33;;;13.53;;
3004;SDS011;1512;51.486;6.610;2023-01-28T17:25:47;32.30;;;15.90;;
3004;SDS011;1512;51.486;6.610;2023-01-28T17:29:56;28.40;;;17.33;;
3004;SDS011;1512;51.486;6.610;2023-01-28T17:34:04;32.47;;;15.57;;
3004;SDS011;1512;51.486;6.610;2023-01-28T17:38:14;25.23;;;14.67;;
3004;SDS011;1512;51.486;6.610;2023-01-28T17:42:23;29.63;;;14.70;;
3004;SDS011;1512;51.486;6.610;2023-01-28T17:46:33;17.80;;;13.37;;
3004;SDS011;1512;51.486;6.610;2023-01-28T17:50:42;20.97;;;13.23;;
3004;SDS011;1512;51.486;6.610;2023-01-28T17:54:50;22.13;;;12.10;;
3004;SDS011;1512;51.486;6.610;2023-01-28T17:59:00;24.27;;;14.20;;
3004;SDS011;1512;51.486;6.610;2023-01-28T18:03:13;23.70;;;14.80;;
3004;SDS011;1512;51.486;6.610;2023-01-28T18:07:22;26.13;;;12.80;;
3004;SDS011;1512;51.486;6.610;2023-01-28T18:11:31;22.43;;;13.50;;
3004;SDS011;1512;51.486;6.610;2023-01-28T18:15:39;24.03;;;13.40;;
3004;SDS011;1512;51.486;6.610;2023-01-28T18:19:48;30.63;;;17.13;;
3004;SDS011;1512;51.486;6.610;2023-01-28T18:23:56;25.10;;;14.57;;
3004;SDS011;1512;51.486;6.610;2023-01-28T18:28:05;23.60;;;12.83;;
3004;SDS011;1512;51.486;6.610;2023-01-28T18:32:14;22.13;;;14.93;;
3004;SDS011;1512;51.486;6.610;2023-01-28T18:36:23;21.80;;;13.27;;
3004;SDS011;1512;51.486;6.610;2023-01-28T18:40:31;28.83;;;13.40;;
3004;SDS011;1512;51.486;6.610;2023-01-28T18:44:41;25.87;;;15.30;;
3004;SDS011;1512;51.486;6.610;2023-01-28T18:48:50;30.33;;;17.90;;
3004;SDS011;1512;51.486;6.610;2023-01-28T18:52:59;31.53;;;14.77;;
3004;SDS011;1512;51.486;6.610;2023-01-28T18:57:08;28.43;;;16.87;;
3004;SDS011;1512;51.486;6.610;2023-01-28T19:01:16;38.48;;;17.48;;
3004;SDS011;1512;51.486;6.610;2023-01-28T19:05:25;28.97;;;19.10;;
3004;SDS011;1512;51.486;6.610;2023-01-28T19:09:34;41.43;;;19.07;;
3004;SDS011;1512;51.486;6.610;2023-01-28T19:13:42;28.37;;;16.70;;
3004;SDS011;1512;51.486;6.610;2023-01-28T19:17:51;31.37;;;18.00;;
3004;SDS011;1512;51.486;6.610;2023-01-28T19:22:00;32.73;;;16.70;;
3004;SDS011;1512;51.486;6.610;2023-01-28T19:26:08;41.50;;;17.87;;
3004;SDS011;1512;51.486;6.610;2023-01-28T19:30:17;28.40;;;16.93;;
3004;SDS011;1512;51.486;6.610;2023-01-28T19:34:25;37.33;;;19.47;;
3004;SDS011;1512;51.486;6.610;2023-01-28T19:38:34;29.93;;;19.10;;
3004;SDS011;1512;51.486;6.610;2023-01-28T19:42:43;28.77;;;17.60;;
3004;SDS011;1512;51.486;6.610;2023-01-28T19:46:51;27.90;;;16.85;;
3004;SDS011;1512;51.486;6.610;2023-01-28T19:51:04;32.83;;;16.73;;
3004;SDS011;1512;51.486;6.610;2023-01-28T19:55:14;35.83;;;17.20;;
3004;SDS011;1512;51.486;6.610;2023-01-28T19:59:23;31.87;;;17.17;;
3004;SDS011;1512;51.486;6.610;2023-01-28T20:03:31;32.50;;;19.10;;
3004;SDS011;1512;51.486;6.610;2023-01-28T20:07:40;33.07;;;17.93;;
3004;SDS011;1512;51.486;6.610;2023-01-28T20:11:49;38.40;;;17.77;;
3004;SDS011;1512;51.486;6.610;2023-01-28T20:15:59;37.53;;;17.73;;
3004;SDS011;1512;51.486;6.610;2023-01-28T20:20:13;30.40;;;18.20;;
3004;SDS011;1512;51.486;6.610;2023-01-28T20:24:22;33.87;;;16.73;;
3004;SDS011;1512;51.486;6.610;2023-01-28T20:28:30;34.63;;;22.10;;
3004;SDS011;1512;51.486;6.610;2023-01-28T20:32:39;30.23;;;19.47;;
3004;SDS011;1512;51.486;6.610;2023-01-28T20:36:48;33.97;;;17.60;;
3004;SDS011;1512;51.486;6.610;2023-01-28T20:41:16;23.00;;;14.70;;
3004;SDS011;1512;51.486;6.610;2023-01-28T20:45:29;27.60;;;15.97;;
3004;SDS011;1512;51.486;6.610;2023-01-28T20:49:39;32.27;;;18.03;;
3004;SDS011;1512;51.486;6.610;2023-01-28T20:53:51;23.40;;;14.27;;
3004;SDS011;1512;51.486;6.610;2023-01-28T20:58:00;36.43;;;17.83;;
3004;SDS011;1512;51.486;6.610;2023-01-28T21:02:09;30.60;;;18.10;;
3004;SDS011;1512;51.486;6.610;2023-01-28T21:06:18;26.50;;;16.20;;
3004;SDS011;1512;51.486;6.610;2023-01-28T21:10:27;28.93;;;17.37;;
3004;SDS011;1512;51.486;6.610;2023-01-28T21:14:35;22.47;;;15.80;;
3004;SDS011;1512;51.486;6.610;2023-01-28T21:18:44;28.57;;;16.03;;
3004;SDS011;1512;51.486;6.610;2023-01-28T21:22:53;27.93;;;14.37;;
3004;SDS011;1512;51.486;6.610;2023-01-28T21:27:02;30.77;;;17.77;;
3004;SDS011;1512;51.486;6.610;2023-01-28T21:31:16;29.90;;;15.27;;
3004;SDS011;1512;51.486;6.610;2023-01-28T21:35:21;27.77;;;18.17;;
3004;SDS011;1512;51.486;6.610;2023-01-28T21:39:30;24.40;;;17.40;;
3004;SDS011;1512;51.486;6.610;2023-01-28T21:43:38;43.73;;;20.17;;
3004;SDS011;1512;51.486;6.610;2023-01-28T21:47:47;33.47;;;17.60;;
3004;SDS011;1512;51.486;6.610;2023-01-28T21:51:56;36.87;;;18.07;;
3004;SDS011;1512;51.486;6.610;2023-01-28T21:56:05;35.30;;;17.90;;
3004;SDS011;1512;51.486;6.610;2023-01-28T22:00:15;32.67;;;16.80;;
3004;SDS011;1512;51.486;6.610;2023-01-28T22:04:29;33.50;;;17.50;;
3004;SDS011;1512;51.486;6.610;2023-01-28T22:08:39;34.37;;;16.27;;
3004;SDS011;1512;51.486;6.610;2023-01-28T22:12:48;31.67;;;17.50;;
3004;SDS011;1512;51.486;6.610;2023-01-28T22:16:56;27.37;;;16.93;;
3004;SDS011;1512;51.486;6.610;2023-01-28T22:21:06;32.90;;;17.77;;
3004;SDS011;1512;51.486;6.610;2023-01-28T22:25:16;30.20;;;19.23;;
3004;SDS011;1512;51.486;6.610;2023-01-28T22:29:25;32.13;;;15.77;;
3004;SDS011;1512;51.486;6.610;2023-01-28T22:33:34;40.17;;;20.20;;
3004;SDS011;1512;51.486;6.610;2023-01-28T22:37:43;36.33;;;20.10;;
3004;SDS011;1512;51.486;6.610;2023-01-28T22:41:51;32.13;;;20.03;;
3004;SDS011;1512;51.486;6.610;2023-01-28T22:46:00;32.57;;;19.30;;
3004;SDS011;1512;51.486;6.610;2023-01-28T22:50:10;24.50;;;14.80;;
3004;SDS011;1512;51.486;6.610;2023-01-28T22:54:19;32.27;;;17.80;;
3004;SDS011;1512;51.486;6.610;2023-01-28T22:58:28;40.77;;;19.07;;
3004;SDS011;1512;51.486;6.610;2023-01-28T23:02:37;32.67;;;18.40;;
3004;SDS011;1512;51.486;6.610;2023-01-28T23:06:46;35.97;;;19.70;;
3004;SDS011;1512;51.486;6.610;2023-01-28T23:10:55;34.97;;;18.67;;
3004;SDS011;1512;51.486;6.610;2023-01-28T23:15:05;30.37;;;18.80;;
3004;SDS011;1512;51.486;6.610;2023-01-28T23:19:33;37.30;;;17.40;;
3004;SDS011;1512;51.486;6.610;2023-01-28T23:24:00;33.00;;;17.07;;
3004;SDS011;1512;51.486;6.610;2023-01-28T23:28:27;43.73;;;20.10;;
3004;SDS011;1512;51.486;6.610;2023-01-28T23:32:36;31.57;;;18.67;;
3004;SDS011;1512;51.486;6.610;2023-01-28T23:36:46;25.50;;;17.23;;
3004;SDS011;1512;51.486;6.610;2023-01-28T23:40:56;33.73;;;19.30;;
3004;SDS011;1512;51.486;6.610;2023-01-28T23:45:05;34.23;;;18.37;;
3004;SDS011;1512;51.486;6.610;2023-01-28T23:49:13;28.50;;;16.30;;
3004;SDS011;1512;51.486;6.610;2023-01-28T23:53:22;32.33;;;20.80;;
3004;SDS011;1512;51.486;6.610;2023-01-28T23:57:31;29.60;;;17.47;;
